createdAt,value
2019-05-23T00:00:49.793Z,7.43
2019-05-23T00:03:59.441Z,7.43
2019-05-23T00:07:07.252Z,7.70
2019-05-23T00:10:13.342Z,8.07
2019-05-23T00:13:35.734Z,8.03
2019-05-23T00:16:40.502Z,7.83
2019-05-23T00:19:44.520Z,8.00
2019-05-23T00:22:48.956Z,8.23
2019-05-23T00:25:53.857Z,9.03
2019-05-23T00:29:09.636Z,9.57
2019-05-23T00:32:25.616Z,10.80
2019-05-23T00:35:31.360Z,11.20
2019-05-23T00:38:35.603Z,12.00
2019-05-23T00:41:40.509Z,13.50
2019-05-23T00:44:44.657Z,14.17
2019-05-23T00:47:49.174Z,13.23
2019-05-23T00:50:54.310Z,15.30
2019-05-23T00:53:58.132Z,14.50
2019-05-23T00:57:02.335Z,15.90
2019-05-23T01:00:06.991Z,16.10
2019-05-23T01:03:11.338Z,16.30
2019-05-23T01:06:15.865Z,17.77
2019-05-23T01:09:20.537Z,15.40
2019-05-23T01:12:25.146Z,15.73
2019-05-23T01:15:29.564Z,17.00
2019-05-23T01:18:33.576Z,16.17
2019-05-23T01:21:48.890Z,15.37
2019-05-23T01:24:55.602Z,16.20
2019-05-23T01:27:59.622Z,16.00
2019-05-23T01:31:06.759Z,15.97
2019-05-23T01:34:14.052Z,16.83
2019-05-23T01:37:18.835Z,15.90
2019-05-23T01:40:23.414Z,16.53
2019-05-23T01:43:27.729Z,17.13
2019-05-23T01:46:31.556Z,16.73
2019-05-23T01:49:37.165Z,15.70
2019-05-23T01:52:42.276Z,15.60
2019-05-23T01:55:46.812Z,16.03
2019-05-23T01:58:51.193Z,16.53
2019-05-23T02:01:55.571Z,16.00
2019-05-23T02:04:59.933Z,16.50
2019-05-23T02:08:05.075Z,15.97
2019-05-23T02:11:10.527Z,15.17
2019-05-23T02:14:14.594Z,16.23
2019-05-23T02:17:19.656Z,14.93
2019-05-23T02:20:24.734Z,14.83
2019-05-23T02:23:29.079Z,14.60
2019-05-23T02:26:33.719Z,15.47
2019-05-23T02:29:37.653Z,15.20
2019-05-23T02:32:41.912Z,16.23
2019-05-23T02:35:45.723Z,15.80
2019-05-23T02:39:08.147Z,15.40
2019-05-23T02:42:21.870Z,15.77
2019-05-23T02:45:33.576Z,16.10
2019-05-23T02:48:43.248Z,15.23
2019-05-23T02:51:47.919Z,15.03
2019-05-23T02:54:54.141Z,15.10
2019-05-23T02:58:05.227Z,14.47
2019-05-23T03:01:40.291Z,14.37
2019-05-23T03:04:44.966Z,14.87
2019-05-23T03:07:50.680Z,13.63
2019-05-23T03:11:05.153Z,14.90
2019-05-23T03:14:11.525Z,15.60
2019-05-23T03:17:18.695Z,16.53
2019-05-23T03:20:24.062Z,17.93
2019-05-23T03:23:28.636Z,16.00
2019-05-23T03:27:00.140Z,17.27
2019-05-23T03:30:06.036Z,17.03
2019-05-23T03:33:10.120Z,17.10
2019-05-23T03:36:14.010Z,17.17
2019-05-23T03:39:18.546Z,16.17
2019-05-23T03:42:23.214Z,16.33
2019-05-23T03:45:30.921Z,16.20
2019-05-23T03:48:36.139Z,16.67
2019-05-23T03:51:42.726Z,15.47
2019-05-23T03:54:49.209Z,14.67
2019-05-23T03:57:54.611Z,15.07
2019-05-23T04:01:00.246Z,14.53
2019-05-23T04:04:06.287Z,14.40
2019-05-23T04:07:10.455Z,14.60
2019-05-23T04:10:14.488Z,14.97
2019-05-23T04:13:18.707Z,14.20
2019-05-23T04:16:22.727Z,15.20
2019-05-23T04:19:26.963Z,14.53
2019-05-23T04:22:31.433Z,15.17
2019-05-23T04:25:35.743Z,14.77
2019-05-23T04:28:39.663Z,14.03
2019-05-23T04:31:43.585Z,14.77
2019-05-23T04:34:47.571Z,14.43
2019-05-23T04:37:51.560Z,14.53
2019-05-23T04:40:56.215Z,15.53
2019-05-23T04:44:00.175Z,15.20
2019-05-23T04:47:05.461Z,15.77
2019-05-23T04:50:12.141Z,15.00
2019-05-23T04:53:16.035Z,14.97
2019-05-23T04:56:19.929Z,15.90
2019-05-23T04:59:24.431Z,14.40
2019-05-23T05:02:30.222Z,15.07
2019-05-23T05:05:34.347Z,15.50
2019-05-23T05:08:38.247Z,15.70
2019-05-23T05:11:42.726Z,16.40
2019-05-23T05:14:47.085Z,14.97
2019-05-23T05:17:51.585Z,15.67
2019-05-23T05:20:55.393Z,15.70
2019-05-23T05:23:59.292Z,15.47
2019-05-23T05:27:04.471Z,15.87
2019-05-23T05:30:09.047Z,16.40
2019-05-23T05:33:12.882Z,16.87
2019-05-23T05:36:16.871Z,17.13
2019-05-23T05:39:22.338Z,14.63
2019-05-23T05:42:26.999Z,12.67
2019-05-23T05:45:31.652Z,12.70
2019-05-23T05:48:35.850Z,11.67
2019-05-23T05:51:40.095Z,11.67
2019-05-23T05:54:44.071Z,12.03
2019-05-23T05:57:47.893Z,11.57
2019-05-23T06:00:58.453Z,10.57
2019-05-23T06:04:03.207Z,9.10
2019-05-23T06:07:29.554Z,9.50
2019-05-23T06:10:33.655Z,8.23
2019-05-23T06:13:37.533Z,9.30
2019-05-23T06:16:41.846Z,8.50
2019-05-23T06:19:46.392Z,7.90
2019-05-23T06:22:52.210Z,6.97
2019-05-23T06:25:56.131Z,7.17
2019-05-23T06:28:59.946Z,7.00
2019-05-23T06:32:06.855Z,7.30
2019-05-23T06:35:10.987Z,6.30
2019-05-23T06:38:14.962Z,5.60
2019-05-23T06:41:19.377Z,5.70
2019-05-23T06:44:23.839Z,5.13
2019-05-23T06:47:27.786Z,5.23
2019-05-23T06:50:31.861Z,5.20
2019-05-23T06:53:35.659Z,5.17
2019-05-23T06:56:39.569Z,4.40
2019-05-23T06:59:43.408Z,4.73
2019-05-23T07:02:49.193Z,4.90
2019-05-23T07:05:53.357Z,4.40
2019-05-23T07:08:57.713Z,3.93
2019-05-23T07:12:01.709Z,3.33
2019-05-23T07:15:06.241Z,3.07
2019-05-23T07:18:10.268Z,3.40
2019-05-23T07:21:15.000Z,3.60
2019-05-23T07:24:19.425Z,3.73
2019-05-23T07:27:24.368Z,3.33
2019-05-23T07:30:28.353Z,3.73
2019-05-23T07:33:32.322Z,3.53
2019-05-23T07:36:36.827Z,4.40
2019-05-23T07:39:40.824Z,3.60
2019-05-23T07:42:44.987Z,3.27
2019-05-23T07:45:55.786Z,4.57
2019-05-23T07:48:59.577Z,4.40
2019-05-23T07:52:03.829Z,3.97
2019-05-23T07:55:17.146Z,4.30
2019-05-23T07:58:22.630Z,4.07
2019-05-23T08:01:28.408Z,4.77
2019-05-23T08:04:32.556Z,4.27
2019-05-23T08:07:38.397Z,4.37
2019-05-23T08:10:42.381Z,3.70
2019-05-23T08:13:46.206Z,4.50
2019-05-23T08:16:50.877Z,4.80
2019-05-23T08:19:55.139Z,4.77
2019-05-23T08:22:59.141Z,4.67
2019-05-23T08:26:03.199Z,4.23
2019-05-23T08:29:25.910Z,4.70
2019-05-23T08:32:12.656Z,4.20
2019-05-23T08:35:18.211Z,4.10
2019-05-23T08:38:23.222Z,4.50
2019-05-23T08:41:27.730Z,4.03
2019-05-23T08:44:31.991Z,4.00
2019-05-23T08:47:36.141Z,3.73
2019-05-23T08:50:39.973Z,3.73
2019-05-23T08:53:43.868Z,2.93
2019-05-23T08:56:47.744Z,3.70
2019-05-23T08:59:51.602Z,3.57
2019-05-23T09:02:58.802Z,3.30
2019-05-23T09:06:03.353Z,3.37
2019-05-23T09:09:28.379Z,3.30
2019-05-23T09:12:15.607Z,3.73
2019-05-23T09:15:19.810Z,4.00
2019-05-23T09:18:24.328Z,3.60
2019-05-23T09:21:28.380Z,3.43
2019-05-23T09:24:32.266Z,4.00
2019-05-23T09:27:36.469Z,3.03
2019-05-23T09:30:40.432Z,3.90
2019-05-23T09:33:44.346Z,3.37
2019-05-23T09:36:48.486Z,3.53
2019-05-23T09:39:52.401Z,3.40
2019-05-23T09:42:56.330Z,3.33
2019-05-23T09:46:00.191Z,3.50
2019-05-23T09:49:04.164Z,3.00
2019-05-23T09:52:09.820Z,2.90
2019-05-23T09:55:14.142Z,3.30
2019-05-23T09:58:18.157Z,2.50
2019-05-23T10:01:22.552Z,2.57
2019-05-23T10:04:26.450Z,2.60
2019-05-23T10:07:30.550Z,2.80
2019-05-23T10:10:34.570Z,2.60
2019-05-23T10:13:39.678Z,2.70
2019-05-23T10:16:43.659Z,2.70
2019-05-23T10:19:47.634Z,2.57
2019-05-23T10:22:51.586Z,3.00
2019-05-23T10:25:55.720Z,2.83
2019-05-23T10:28:59.770Z,2.57
2019-05-23T10:32:05.514Z,3.10
2019-05-23T10:35:10.365Z,3.20
2019-05-23T10:38:14.374Z,3.20
2019-05-23T10:41:18.394Z,3.43
2019-05-23T10:44:22.282Z,3.17
2019-05-23T10:47:26.347Z,3.20
2019-05-23T10:50:43.627Z,3.60
2019-05-23T10:53:36.221Z,3.50
2019-05-23T10:56:40.219Z,3.43
2019-05-23T10:59:44.053Z,3.20
2019-05-23T11:02:48.217Z,3.53
2019-05-23T11:05:52.234Z,3.83
2019-05-23T11:08:56.328Z,4.13
2019-05-23T11:12:00.417Z,4.00
2019-05-23T11:15:04.651Z,4.50
2019-05-23T11:18:10.208Z,4.77
2019-05-23T11:21:14.101Z,5.07
2019-05-23T11:24:18.275Z,4.67
2019-05-23T11:27:22.812Z,4.63
2019-05-23T11:30:42.003Z,5.00
2019-05-23T11:33:45.908Z,5.70
2019-05-23T11:36:49.840Z,5.50
2019-05-23T11:39:54.041Z,6.10
2019-05-23T11:42:57.966Z,5.90
2019-05-23T11:46:21.309Z,5.47
2019-05-23T11:49:25.379Z,6.17
2019-05-23T11:52:30.234Z,6.50
2019-05-23T11:55:34.361Z,5.60
2019-05-23T11:58:38.163Z,5.07
2019-05-23T12:01:50.905Z,5.33
2019-05-23T12:04:56.114Z,4.83
2019-05-23T12:08:00.008Z,5.37
2019-05-23T12:11:04.089Z,4.63
2019-05-23T12:14:08.043Z,4.20
2019-05-23T12:17:12.736Z,5.63
2019-05-23T12:20:17.002Z,4.27
2019-05-23T12:23:20.835Z,4.50
2019-05-23T12:26:24.790Z,5.47
2019-05-23T12:29:28.771Z,5.57
2019-05-23T12:32:32.772Z,5.73
2019-05-23T12:35:36.584Z,5.67
2019-05-23T12:38:40.492Z,5.70
2019-05-23T12:41:44.588Z,6.60
2019-05-23T12:44:48.546Z,6.00
2019-05-23T12:48:09.027Z,7.13
2019-05-23T12:51:13.024Z,7.20
2019-05-23T12:54:17.012Z,7.97
2019-05-23T12:57:20.994Z,8.77
2019-05-23T13:00:42.664Z,8.83
2019-05-23T13:03:46.983Z,7.60
2019-05-23T13:06:50.874Z,7.97
2019-05-23T13:09:54.763Z,9.00
2019-05-23T13:12:58.748Z,8.67
2019-05-23T13:16:02.635Z,9.37
2019-05-23T13:19:06.561Z,9.73
2019-05-23T13:22:11.116Z,8.93
2019-05-23T13:25:15.388Z,10.07
2019-05-23T13:28:19.644Z,8.80
2019-05-23T13:31:23.640Z,9.87
2019-05-23T13:34:27.449Z,9.70
2019-05-23T13:37:31.468Z,10.57
2019-05-23T13:40:35.412Z,11.40
2019-05-23T13:43:39.625Z,9.83
2019-05-23T13:46:44.193Z,10.40
2019-05-23T13:49:48.183Z,9.50
2019-05-23T13:52:52.150Z,9.13
2019-05-23T13:55:56.336Z,9.93
2019-05-23T13:59:00.432Z,10.83
2019-05-23T14:02:06.123Z,8.60
2019-05-23T14:05:10.261Z,10.30
2019-05-23T14:08:18.488Z,9.43
2019-05-23T14:11:20.449Z,10.27
2019-05-23T14:14:25.077Z,10.83
2019-05-23T14:17:36.233Z,10.77
2019-05-23T14:20:40.203Z,9.47
2019-05-23T14:23:44.105Z,9.30
2019-05-23T14:26:54.898Z,9.97
2019-05-23T14:30:08.181Z,10.30
2019-05-23T14:33:06.381Z,9.80
2019-05-23T14:36:38.362Z,10.30
2019-05-23T14:39:45.966Z,10.50
2019-05-23T14:43:15.420Z,9.87
2019-05-23T14:46:20.044Z,11.00
2019-05-23T14:49:30.193Z,10.20
2019-05-23T14:52:38.113Z,10.80
2019-05-23T14:55:42.078Z,11.13
2019-05-23T14:58:46.088Z,12.67
2019-05-23T15:01:50.545Z,12.83
2019-05-23T15:04:54.363Z,12.00
2019-05-23T15:07:58.255Z,12.90
2019-05-23T15:11:02.325Z,11.83
2019-05-23T15:14:06.341Z,11.67
2019-05-23T15:17:10.231Z,12.63
2019-05-23T15:20:14.789Z,13.17
2019-05-23T15:23:18.724Z,12.10
2019-05-23T15:26:23.976Z,13.90
2019-05-23T15:29:29.402Z,14.60
2019-05-23T15:32:33.662Z,13.00
2019-05-23T15:35:37.559Z,13.87
2019-05-23T15:38:41.836Z,13.27
2019-05-23T15:41:45.850Z,12.93
2019-05-23T15:44:50.057Z,12.60
2019-05-23T15:47:55.090Z,13.40
2019-05-23T15:50:59.183Z,13.27
2019-05-23T15:54:14.892Z,15.33
2019-05-23T15:57:22.935Z,14.10
2019-05-23T16:01:01.434Z,13.57
2019-05-23T16:04:11.584Z,14.40
2019-05-23T16:07:16.027Z,15.47
2019-05-23T16:10:22.778Z,16.77
2019-05-23T16:13:26.763Z,16.00
2019-05-23T16:16:39.118Z,13.60
2019-05-23T16:19:43.789Z,14.87
2019-05-23T16:22:47.748Z,15.17
2019-05-23T16:25:51.614Z,14.13
2019-05-23T16:28:55.624Z,14.03
2019-05-23T16:32:02.788Z,13.47
2019-05-23T16:35:06.870Z,12.40
2019-05-23T16:38:10.971Z,11.70
2019-05-23T16:41:14.974Z,12.13
2019-05-23T16:44:18.922Z,10.53
2019-05-23T16:47:22.905Z,10.27
2019-05-23T16:50:26.687Z,9.97
2019-05-23T16:53:35.510Z,10.27
2019-05-23T16:56:54.149Z,9.17
2019-05-23T17:00:15.987Z,9.63
2019-05-23T17:03:38.826Z,8.83
2019-05-23T17:06:50.137Z,9.30
2019-05-23T17:10:08.659Z,8.37
2019-05-23T17:13:17.953Z,8.20
2019-05-23T17:16:40.848Z,9.67
2019-05-23T17:20:18.509Z,7.33
2019-05-23T17:23:27.687Z,7.87
2019-05-23T17:26:53.366Z,7.47
2019-05-23T17:30:02.216Z,7.27
2019-05-23T17:33:07.681Z,7.47
2019-05-23T17:36:11.554Z,7.40
2019-05-23T17:39:16.757Z,6.70
2019-05-23T17:42:20.561Z,7.60
2019-05-23T17:45:24.650Z,12.57
2019-05-23T17:48:28.571Z,9.03
2019-05-23T17:51:32.475Z,10.13
2019-05-23T17:54:36.353Z,8.40
2019-05-23T17:57:40.347Z,6.37
2019-05-23T18:00:45.655Z,6.83
2019-05-23T18:03:49.559Z,6.63
2019-05-23T18:06:53.746Z,7.00
2019-05-23T18:09:57.654Z,6.90
2019-05-23T18:13:01.713Z,6.87
2019-05-23T18:16:06.660Z,7.47
2019-05-23T18:19:10.815Z,6.57
2019-05-23T18:22:14.966Z,7.53
2019-05-23T18:25:19.340Z,7.63
2019-05-23T18:28:24.053Z,7.90
2019-05-23T18:31:29.609Z,8.00
2019-05-23T18:34:33.601Z,6.67
2019-05-23T18:37:37.431Z,6.93
2019-05-23T18:40:41.398Z,6.53
2019-05-23T18:43:46.655Z,6.67
2019-05-23T18:46:52.823Z,6.70
2019-05-23T18:49:56.805Z,6.60
2019-05-23T18:53:00.800Z,7.10
2019-05-23T18:56:05.023Z,7.30
2019-05-23T18:59:09.972Z,7.70
2019-05-23T19:02:13.852Z,7.77
2019-05-23T19:05:18.179Z,8.60
2019-05-23T19:08:22.716Z,8.70
2019-05-23T19:11:26.808Z,8.43
2019-05-23T19:14:30.746Z,8.63
2019-05-23T19:17:34.650Z,9.27
2019-05-23T19:20:38.987Z,8.93
2019-05-23T19:23:43.136Z,9.83
2019-05-23T19:26:48.411Z,9.97
2019-05-23T19:29:52.403Z,10.00
2019-05-23T19:32:56.939Z,10.13
2019-05-23T19:36:00.864Z,10.30
2019-05-23T19:39:06.711Z,10.97
2019-05-23T19:42:11.076Z,11.53
2019-05-23T19:45:15.041Z,11.90
2019-05-23T19:48:20.099Z,12.33
2019-05-23T19:51:23.908Z,12.33
2019-05-23T19:54:27.911Z,14.43
2019-05-23T19:57:32.143Z,13.67
2019-05-23T20:00:36.778Z,14.57
2019-05-23T20:03:41.049Z,23.67
2019-05-23T20:06:45.832Z,15.80
2019-05-23T20:09:50.213Z,15.63
2019-05-23T20:12:54.126Z,15.47
2019-05-23T20:15:57.934Z,15.10
2019-05-23T20:19:01.829Z,15.47
2019-05-23T20:22:05.838Z,15.77
2019-05-23T20:25:10.899Z,14.80
2019-05-23T20:28:14.803Z,16.50
2019-05-23T20:31:18.889Z,16.63
2019-05-23T20:34:22.953Z,15.67
2019-05-23T20:37:29.984Z,17.07
2019-05-23T20:40:33.928Z,16.30
2019-05-23T20:43:37.998Z,17.07
2019-05-23T20:46:42.289Z,16.57
2019-05-23T20:49:46.200Z,16.90
2019-05-23T20:52:50.020Z,16.57
2019-05-23T20:55:53.868Z,18.50
2019-05-23T20:58:57.757Z,18.00
2019-05-23T21:02:01.913Z,17.43
2019-05-23T21:05:05.917Z,17.93
2019-05-23T21:08:09.810Z,18.73
2019-05-23T21:11:13.695Z,18.80
2019-05-23T21:14:17.652Z,18.40
2019-05-23T21:17:21.727Z,19.23
2019-05-23T21:20:25.620Z,19.43
2019-05-23T21:23:29.507Z,20.20
2019-05-23T21:26:33.419Z,18.73
2019-05-23T21:29:37.319Z,20.87
2019-05-23T21:32:41.199Z,18.97
2019-05-23T21:35:45.098Z,20.53
2019-05-23T21:38:49.147Z,19.77
2019-05-23T21:41:53.004Z,21.33
2019-05-23T21:44:56.911Z,22.03
2019-05-23T21:48:00.886Z,23.30
2019-05-23T21:51:05.207Z,23.33
2019-05-23T21:54:09.241Z,23.17
2019-05-23T21:57:16.213Z,21.93
2019-05-23T22:00:32.181Z,22.80
2019-05-23T22:03:38.227Z,23.43
2019-05-23T22:06:44.775Z,23.70
2019-05-23T22:09:50.368Z,24.47
2019-05-23T22:13:03.920Z,24.97
2019-05-23T22:16:00.810Z,23.17
2019-05-23T22:19:09.858Z,24.87
2019-05-23T22:22:16.913Z,24.37
2019-05-23T22:25:32.620Z,26.70
2019-05-23T22:28:37.228Z,26.37
2019-05-23T22:31:44.193Z,26.23
2019-05-23T22:35:10.238Z,24.87
2019-05-23T22:38:14.994Z,24.43
2019-05-23T22:41:19.615Z,25.07
2019-05-23T22:44:23.872Z,26.63
2019-05-23T22:47:29.417Z,26.63
2019-05-23T22:50:33.260Z,26.40
2019-05-23T22:53:37.195Z,27.53
2019-05-23T22:56:41.589Z,28.50
2019-05-23T22:59:48.036Z,27.10
2019-05-23T23:02:52.243Z,28.23
2019-05-23T23:05:56.119Z,30.40
2019-05-23T23:09:00.082Z,29.43
2019-05-23T23:12:03.973Z,32.07
2019-05-23T23:15:08.144Z,30.67
2019-05-23T23:18:11.979Z,30.37
2019-05-23T23:21:15.881Z,29.77
2019-05-23T23:24:19.786Z,30.80
2019-05-23T23:27:23.679Z,30.47
2019-05-23T23:30:30.706Z,32.10
2019-05-23T23:33:34.673Z,30.27
2019-05-23T23:36:38.498Z,29.87
2019-05-23T23:39:42.504Z,28.73
2019-05-23T23:42:46.320Z,28.37
2019-05-23T23:46:07.998Z,28.70
2019-05-23T23:49:29.669Z,28.63
2019-05-23T23:52:51.322Z,28.00
2019-05-23T23:56:13.002Z,29.67
2019-05-23T23:59:15.955Z,28.50
